China Minsheng Banking Corp., Ltd. 中國民生銀行股份有限公司

start date:
end date:
include new appointments after start date

Role: Banker

This is a continuing role. Total returns are measured from the latest of the start date, the appointment date and 3-Jan-1994 until the earliest of the end date, the resignation/removal date and the last trading date. CAGR is the annualised return and is not shown for periods under 180 days. Relative returns are to the Tracker Fund of HK (2800), starting from the latest of 12-Nov-1999, the appointment date and the chosen start date.

Some data are hidden to fit your display. Rotate?

Client Added Removed Total
return
CAGR
total
return
CAGR
relative
return
1 China Animal Healthcare Ltd. 129.72% 21.54% 16.11%
2 Skyworth Group Limited (BM) 2000-03-28 2003-07-23 -62.97% -26.06% -15.86%
3 Shenzhen Expressway Company Limited 2001-01-18 2002-04-12 93.49% 71.07% 123.21%
4 Hao Wen Holdings Limited 2001-07-16 2002-03-22 -48.00% -62.28% -56.34%
5 DATASYS TECHNOLOGY HOLDINGS LIMITED 2002-07-31 2008-06-17 -64.71% -44.96% -50.01%
6 LAUNCH TECH COMPANY LIMITED 2003-03-24 2004-04-30 87.88% 77.11% 32.74%
7 BEIJING ENTERPRISES HOLDINGS LIMITED 2003-04-15 2004-04-15 38.58% 38.49% -7.19%
8 GLOBAL LINK COMMUNICATIONS HOLDINGS LIMITED 2003-06-18 2012-06-22 -91.23% -23.66% -31.20%
9 V.S. INTERNATIONAL GROUP LIMITED 2003-09-26 2008-09-23 -59.56% -16.58% -27.10%
10 BeijingWest Industries International Limited 2003-09-29 2005-06-15 33.80% 18.91% 4.60%
11 DYNAMIC HOLDINGS LIMITED (BM) 2003-10-24 2006-10-24 119.62% 29.98% 8.85%
12 Alibaba Pictures Group Limited 2004-03-26 2012-03-29 -24.53% -3.45% -12.03%
13 CHINA EVERBRIGHT INTERNATIONAL LIMITED 2004-04-14 2017-02-28 2,313.92% 28.05% 18.15%
14 Hisense Home Appliances Group Co., Ltd. 2004-04-19 2013-03-28 -8.00% -0.93% -10.02%
15 GT GROUP HOLDINGS LIMITED 2004-04-26 2008-04-21 -20.00% -5.44% -23.14%
16 BEIJING CAPITAL LAND LTD. 2005-03-22 2006-03-31 92.71% 89.77% 60.97%
17 CSPC PHARMACEUTICAL GROUP LIMITED 2005-04-11 1,091.37% 18.43% 9.63%
18 HOPSON DEVELOPMENT HOLDINGS LIMITED 2005-04-18 2006-04-13 380.27% 391.38% 285.05%
19 Guangzhou R&F Properties Co., Ltd. 2005-06-30 2011-03-24 349.02% 30.19% 16.59%
20 CHINA GAS HOLDINGS LIMITED 2005-07-08 2007-07-20 112.93% 45.07% 9.39%
21 China Display Optoelectronics Technology Holdings Limited 2005-10-27 2014-07-04 -52.69% -14.54% -23.78%
22 SSY Group Limited (KY) 2005-12-02 2017-03-29 947.42% 23.17% 14.50%
23 Changan Minsheng APLL Logistics Co., Ltd. 2006-02-16 -38.61% -3.48% -9.96%
24 China Nonferrous Metals Company Limited 2006-03-27 2007-03-23 -20.42% -20.63% -38.04%
25 BEIJING ENTERPRISES ENVIRONMENT GROUP LIMITED 2006-04-11 -20.38% -1.66% -7.99%
26 AVIC International Holdings Limited 2006-04-19 2008-04-15 361.85% 115.70% 75.97%
27 Fortune Sun (China) Holdings Limited 2006-06-23 -44.10% -4.24% -10.51%
28 Crown International Corporation Limited 2006-09-25 2007-03-21 -11.93%
29 Public Financial Holdings Limited 2007-01-10 2011-01-14 24.54% 5.62% -2.87%
30 TOM ONLINE INC. 2007-03-15 2007-09-03 3.45%
31 BEIJING CAPITAL LAND LTD. 2007-03-16 2008-03-07 21.21% 21.75% -0.48%
32 Shanghai Dasheng Agriculture Finance Technology Co., Ltd. 2007-03-28 2013-03-19 -63.83% -15.65% -19.68%
33 KASEN INTERNATIONAL HOLDINGS LIMITED 2007-04-16 2008-04-15 -15.08% -15.09% -28.02%
34 Jilin Qifeng Chemical Fiber Co., Ltd. 2007-04-19 2011-03-25 -33.28% -9.78% -15.30%
35 SINO-OCEAN GROUP HOLDING LIMITED 2007-09-14 2016-03-21 -48.64% -7.56% -7.44%
36 CHINA RAILWAY GROUP LIMITED 2007-11-23 -27.57% -2.65% -5.03%
37 CHINA ORIENTAL GROUP COMPANY LIMITED 2008-03-27 2014-03-21 -79.69% -23.73% -23.55%
38 DENWAY MOTORS LIMITED 2008-04-02 2009-04-02 4.59% 4.59% 63.97%
39 Shandong Chenming Paper Holdings Limited 2008-06-04 2009-04-08 -43.33% -50.62% -14.42%
40 CRRC Corporation Limited 2008-08-08 2016-03-29 233.03% 17.14% 13.54%
41 SHANDONG MOLONG PETROLEUM MACHINERY COMPANY LIMITED 2009-02-16 2011-03-29 110.78% 42.37% 7.34%
42 WUMART STORES, INC. 2009-03-24 22.77% 3.08% -6.58%
43 KASEN INTERNATIONAL HOLDINGS LIMITED 2009-04-06 2017-03-31 131.27% 11.07% 1.47%
44 AVIC International Holdings Limited 2009-04-17 2013-03-28 25.27% 5.88% -6.02%
45 KWG Group Holdings Limited 2009-04-17 539.52% 19.06% 9.77%
46 EPI (Holdings) Limited 2009-04-23 2010-03-10 105.95% 127.52% 51.77%
47 China Zhongwang Holdings Limited 2009-04-24 2010-04-20 6.18% 6.52% -16.99%
48 China Qinfa Group Limited 2009-06-19 2010-03-28 -9.33% -12.58% -29.19%
49 GLORIOUS PROPERTY HOLDINGS LIMITED 2009-09-21 -93.42% -23.47% -27.71%
50 Fantasia Holdings Group Co., Limited 2009-11-12 2011-03-14 -44.06% -36.08% -38.76%
51 Blockchain Group Company Limited 2010-01-17 2011-12-30 -63.36% -40.30% -37.29%
52 Poly Property Group Co., Limited 2010-02-22 2013-03-20 -42.61% -16.54% -21.31%
53 NOBLE GROUP LIMITED (BM) 2010-02-23
54 China Evergrande Group 2010-04-12 879.57% 26.68% 20.43%
55 Anxin-China Holdings Limited 2010-04-25 2018-12-20 -66.07% -19.69% -24.48%
56 ZHONGDA INTERNATIONAL HOLDINGS LIMITED 2010-04-28 2019-03-08 -45.51% -36.29% -36.60%
57 Ko Yo Chemical (Group) Limited 2010-04-30 -84.70% -17.76% -22.22%
58 Zoomlion Heavy Industry Science and Technology Co., Ltd. 2010-12-13 2011-03-28 21.76%
59 Top Spring International Holdings Limited 2011-03-11 2018-03-14 58.05% 6.78% -1.29%
60 NewOcean Energy Holdings Limited 2011-03-18 -22.10% -2.82% -7.78%
61 CAPINFO COMPANY LIMITED 2011-03-21 2013-03-24 -15.01% -7.79% -9.54%
62 Huayi Tencent Entertainment Company Limited 2011-03-21 -75.84% -15.05% -19.24%
63 SRE Group Limited 2011-03-25 2017-03-27 -46.11% -9.78% -13.33%
64 China Qinfa Group Limited 2011-03-27 2018-03-27 -70.97% -16.20% -22.15%
65 BAOYE GROUP COMPANY LIMITED 2011-03-28 15.30% 1.65% -3.18%
66 MODERN MEDIA HOLDINGS LIMITED 2011-03-28 -83.53% -18.74% -22.61%
67 AviChina Industry & Technology Company Limited 2011-03-29 -11.75% -1.43% -6.12%
68 China Financial Services Holdings Limited 2011-03-29 2012-03-28 -4.00% -4.00% 2.64%
69 PYI Corporation Limited 2011-06-24 -70.31% -13.39% -17.87%
70 Zall Smart Commerce Group Ltd. 2011-06-30 -26.87% -3.66% -8.79%
71 361 Degrees International Limited 2011-08-23 2014-03-17 -37.77% -16.88% -21.75%
72 HOPEWELL HOLDINGS LIMITED 2011-08-25 2012-08-20 10.34% 10.47% 4.68%
73 Grand Baoxin Auto Group Limited 2011-12-02 2012-03-14 33.97%
74 Haitong Securities Co., Ltd. 2011-12-05 2013-03-26 6.04% 6.64% -4.65%
75 China Tianrui Group Cement Company Limited 2011-12-14 2016-03-15 -28.44% -7.61% -12.34%
76 Golden Eagle Retail Group Limited 2012-03-12 -43.10% -7.03% -12.64%
77 Kinetic Mines and Energy Limited 2012-03-13 -58.85% -10.89% -16.51%
78 SOHO CHINA LIMITED 2012-03-14 2015-03-06 18.10% 5.75% -1.94%
79 ZHONGYU GAS HOLDINGS LIMITED 2012-03-14 2017-03-22 149.41% 19.96% 13.10%
80 Hidili Industry International Development Limited 2012-03-20 -87.70% -23.80% -28.49%
81 Trauson Holdings Company Limited 2012-03-21 2013-07-15 216.78% 238.96% 198.95%
82 Xtep International Holdings Limited 2012-03-21 99.81% 9.40% 2.65%
83 CENTURY GINWA RETAIL HOLDINGS LIMITED 2012-03-22 2016-07-03 -70.14% -24.63% -27.17%
84 HKC (HOLDINGS) LIMITED 2012-03-22 -19.79% -2.82% -8.81%
85 K. WAH INTERNATIONAL HOLDINGS LIMITED 2012-03-22 2016-03-23 30.94% 6.97% 3.87%
86 SINOPHARM GROUP CO. LTD. 2012-03-22 38.87% 4.35% -2.08%
87 AGTech Holdings Limited 2012-03-23 2014-03-24 567.86% 158.26% 143.29%
88 SHANXI CHANGCHENG MICROLIGHT EQUIPMENT CO. LTD. 2012-03-26 2015-03-30 8.24% 2.67% -6.55%
89 CHINA GLASS HOLDINGS LIMITED 2012-03-27 2014-03-17 -34.06% -19.04% -22.26%
90 China Metal Recycling (Holdings) Limited 2012-03-27 2016-02-04 14.02% 17.07% -0.95%
91 EcoGreen International Group Limited 2012-03-29 2016-03-29 34.70% 7.73% 4.61%
92 China High Speed Transmission Equipment Group Co., Ltd. 2012-03-30 19.95% 2.40% -4.14%
93 Yanchang Petroleum International Limited 2012-03-30 -90.96% -26.87% -31.54%
94 China Yongda Automobiles Services Holdings Limited 2012-05-18 2013-03-28 20.09% 29.46% 1.82%
95 China Aluminum International Engineering Corporation Limited 2012-06-22 -14.73% -2.13% -8.81%
96 Hong Kong Shanghai Alliance Holdings Limited 2012-06-22 2015-06-26 401.91% 70.94% 48.15%
97 Qingdao Holdings International Limited 2012-06-26 2015-06-29 56.89% 16.16% 1.47%
98 Da Yu Financial Holdings Limited 2012-09-27 2019-04-27 21.29% 10.27% -1.07%
99 WISON ENGINEERING SERVICES CO. LTD. 2012-12-13 2015-03-30 -37.85% -19.05% -24.73%
100 Blockchain Group Company Limited 2012-12-17 2014-03-27 -48.68% -40.78% -40.98%
101 Digital Domain Holdings Limited 2013-01-30 2018-03-28 49.57% 8.12% 0.04%
102 NATURAL BEAUTY BIO-TECHNOLOGY LIMITED 2013-03-19 74.74% 8.67% 2.21%
103 LI NING COMPANY LIMITED 2013-03-25 515.57% 31.18% 23.65%
104 Smartac Group China Holdings Limited 2013-03-25 2016-03-31 40.41% 11.91% 10.79%
105 China Ruifeng Renewable Energy Holdings Limited 2013-03-26 -80.52% -21.68% -26.15%
106 MIE Holdings Corporation 2013-03-27 2014-03-20 -32.50% -33.04% -31.26%
107 Sparkle Roll Group Limited 2013-06-20 2015-06-26 -14.91% -7.70% -21.68%
108 Hao Tian Development Group Limited 2013-06-21 -74.71% -19.18% -24.85%
109 Bosideng International Holdings Limited 2013-06-26 142.96% 14.77% 6.78%
110 ASIA RESOURCES HOLDINGS LIMITED 2013-06-27 -92.00% -32.45% -37.11%
111 Up Energy Development Group Limited 2013-06-28 -73.13% -35.43% -37.20%
112 Art Group Holdings Limited (KY) 2013-09-27 2014-09-26 16.67% 16.73% 10.14%
113 Brightoil Petroleum (Holdings) Limited 2013-09-30 17.21% 4.05% -3.89%
114 Cabbeen Fashion Limited 2013-10-16 2014-02-20 5.00%
115 Fullshare Holdings Limited 2013-10-28 2015-03-31 305.41% 196.76% 170.90%
116 Huaxi Holdings Company Limited 2013-11-26 242.53% 22.79% 16.75%
117 China Binary New Fintech Group 2013-11-27 -65.22% -16.14% -20.29%
118 CHINA CINDA ASSET MANAGEMENT CO., LTD. 2013-11-28 2014-03-27 -7.78%
119 QINHUANGDAO PORT CO., LTD. 2013-11-29 -57.77% -13.43% -18.02%
120 FUJIAN NUOQI Co., Ltd 2013-12-30 -51.75% -74.46% -78.02%
121 Feishang Anthracite Resources Limited 2013-12-31 -47.00% -10.26% -15.23%
122 CHINA MOLYBDENUM CO., LTD. 2014-02-26 230.60% 23.02% 15.57%
123 Sunshine 100 China Holdings Ltd 2014-02-27 -61.28% -15.26% -20.80%
124 China Trends Holdings Limited 2014-03-11 -58.13% -14.08% -19.44%
125 China Starch Holdings Limited 2014-03-21 2015-03-12 -15.65% -16.03% -27.24%
126 China Infrastructure & Logistics Group Ltd. 2014-03-24 153.33% 17.71% 10.07%
127 Kaisun Holdings Limited 2014-03-26 2015-03-25 -32.54% -32.63% -42.15%
128 China Properties Group Limited 2014-03-27 -51.70% -12.00% -17.76%
129 NetDragon Websoft Holdings Limited 2014-03-27 35.93% 5.54% -1.36%
130 Shenyang Public Utility Holdings Company Limited 2014-03-30 -49.45% -11.32% -16.93%
131 CHINA LONGEVITY GROUP COMPANY LIMITED 2014-05-28 2015-03-31
132 China New City Commercial Development Limited 2014-06-17 -49.04% -11.73% -16.50%
133 Jia Yao Holdings Limited 2014-06-17 2019-03-29 33.48% 6.26% -1.87%
134 Yida China Holdings Limited 2014-06-17 2018-03-26 21.17% 5.26% -5.19%
135 HUABAO INTERNATIONAL HOLDINGS LIMITED 2014-06-18 -3.31% -0.61% -6.03%
136 Ourgame International Holdings Limited 2014-06-18 -87.49% -31.79% -35.53%
137 BEIJING Digital Telecom Co., Ltd. 2014-06-25 -60.95% -15.95% -20.30%
138 China Fordoo Holdings Limited 2014-06-30 2015-03-11 2.50% 3.86% 0.72%
139 Chinlink International Holdings Limited 2014-06-30 -86.83% -31.14% -34.92%
140 China Rundong Auto Group Limited 2014-07-31 2015-03-29 -6.72% -10.59% -11.51%
141 Q Technology (Group) Company Limited 2014-11-20 2019-03-25 161.31% 24.97% 15.84%
142 Country Garden Holdings Company Limited 2015-03-11 404.87% 40.75% 33.08%
143 Carnival Group International Holdings Limited 2015-03-13 -98.82% -60.84% -62.95%
144 Powerlong Real Estate Holdings Limited 2015-03-17 456.15% 43.84% 36.27%
145 Imperial Pacific International Holdings Limited 2015-03-24 2018-03-28 13.28% 4.23% -5.78%
146 China Shengmu Organic Milk Limited 2015-03-26 -86.43% -34.65% -37.78%
147 Landing International Development Limited 2015-03-27 2019-03-31 -91.89% -46.60% -50.51%
148 Rentian Technology Holdings Limited 2015-03-29 -94.74% -46.66% -49.08%
149 United Laboratories International Holdings Limited (The) 2015-03-30 2016-03-22 -14.53% -14.81% -0.11%
150 Landsea Green Properties Co., Ltd. 2015-03-31 2017-03-26 4.81% 2.40% 0.20%
151 Huatai Securities Co., Ltd. 2015-05-19 2016-03-29 -33.69% -39.16% -14.64%
152 CNC Holdings Limited (KY) 2015-06-01 2018-06-14 -82.40% -43.57% -47.15%
153 Red Star Macalline Group Corporation Ltd. 2015-06-16 -39.92% -10.83% -13.49%
154 China Smartpay Group Holdings Limited 2015-06-22 -92.95% -44.86% -46.37%
155 Chinese People Holdings Company Limited 2015-06-28 2016-06-30 -46.67% -46.51% -35.66%
156 PROSPERITY INTERNATIONAL HOLDINGS (H.K.) LIMITED 2015-06-30 -94.84% -48.76% -50.46%
157 HENGTAI SECURITIES CO., LTD 2015-09-30 -22.30% -5.91% -11.94%
158 China Reinsurance (Group) Corporation 2015-10-13 2016-03-30 -22.96%
159 China Huarong Asset Management Co., Ltd. 2015-10-16 2016-03-17 -5.16%
160 Creative China Holdings Limited 2015-11-12 -98.00% -61.97% -64.72%
161 China Fordoo Holdings Limited 2016-03-08 274.53% 42.31% 27.82%
162 Haitong International Securities Group Limited 2016-03-10 2018-03-14 41.99% 19.06% -7.89%
163 TONG REN TANG TECHNOLOGIES CO. LTD. 2016-03-18 2018-03-29 13.21% 6.31% -14.39%
164 Kingsoft Corporation Limited 2016-03-22 2018-03-21 66.92% 29.27% 1.46%
165 SHOUGANG CONCORD CENTURY HOLDINGS LIMITED 2016-03-23 -5.47% -1.51% -10.94%
166 China Cloud Copper Company Limited 2016-03-30 -93.72% -52.84% -57.24%
167 China Huarong Energy Company Limited 2016-03-30 -88.06% -43.85% -49.09%
168 CHINA LONGEVITY GROUP COMPANY LIMITED 2016-03-30 2018-03-29
169 China Yurun Food Group Limited 2016-03-30 -35.77% -11.33% -19.61%
170 Holly Futures Co., Ltd. 2016-03-30 -10.01% -2.82% -11.89%
171 SHANGHAI ZENDAI PROPERTY LIMITED 2016-03-30 -70.06% -27.93% -34.66%
172 Yunnan Water Investment Co., Limited 2016-03-30 -51.66% -17.91% -25.58%
173 CHINA ORIENTAL GROUP COMPANY LIMITED 2016-03-31 2017-03-31 35.09%
174 E-Commodities Holdings Limited 2016-04-25 2018-03-22 449.67% 144.57% 93.80%
175 Richly Field China Development Limited 2016-06-26 -85.54% -43.02% -48.90%
176 FDG Electric Vehicles Limited 2016-06-29 2018-06-28 -72.41% -47.55% -56.80%
177 Huiyin Holdings Group Limited 2016-09-27 -94.88% -60.66% -63.22%
178 Guangdong Adway Construction (Group) Holdings Company Limited 2016-11-15 2018-03-23 41.68% 30.15% 2.07%
179 Shanghai Dazhong Public Utilities (Group) Co., Ltd. 2016-11-23 2017-03-31 3.33%
180 Zhi Sheng Group Holdings Limited 2016-12-30 -88.40% -52.77% -56.53%
181 CIFI Holdings (Group) Co. Ltd. 2017-03-08 159.14% 41.49% 31.52%
182 Redco Properties Group Limited 2017-03-16 38.08% 12.59% 5.46%
183 China Ever Grand Financial Leasing Group Co., Ltd. 2017-03-21 -82.22% -47.16% -50.30%
184 China ZhengTong Auto Services Holdings Limited 2017-03-21 -35.51% -14.95% -20.00%
185 CHINA OVERSEAS LAND & INVESTMENT LIMITED 2017-03-22 21.99% 7.62% 0.85%
186 LongiTech Smart Energy Holding Limited 2017-03-22 -87.35% -53.43% -56.36%
187 China Assurance Finance Group Limited 2017-03-23 -95.90% -79.51% -81.88%
188 Kunming Dianchi Water Treatment Co., Ltd. 2017-03-24 -31.15% -13.07% -18.69%
189 Tianjin Binhai Teda Logistics (Group) Corporation Limited 2017-03-24 2018-03-20 -14.07% -14.22% -35.96%
190 China ITS (Holdings) Co., Ltd. 2017-03-27 2018-05-03 -28.07% -28.02% -43.76%
191 Sunac China Holdings Limited 2017-03-27 365.10% 77.03% 65.58%
192 WISON ENGINEERING SERVICES CO. LTD. 2017-03-28 1.44% 0.53% -5.76%
193 Chigo Holding Limited 2017-03-29 -60.16% -29.01% -33.46%
194 Beautiful China Holdings Company Limited 2017-03-30 -80.52% -45.65% -49.09%
195 Skyfame Realty (Holdings) Limited 2017-03-31 211.13% 52.72% 42.70%
196 China New Higher Education Group Limited 2017-04-05 -1.11% -0.42% -7.52%
197 Silver Base Group Holdings Limited 2017-06-26 -66.92% -36.43% -39.05%
198 Chinese People Holdings Company Limited 2017-06-30 -41.94% -20.04% -23.41%
199 China Boqi Environmental (Holding) Co., Ltd. 2018-02-28 -46.79% -30.67% -25.93%
200 OCI International Holdings Limited 2018-02-28 -16.15% -9.50% -4.68%
201 China Industrial Securities International Financial Group Limited 2018-03-07 -77.13% -57.03% -55.21%
202 Huarong Investment Stock Corporation Limited 2018-03-13 -81.75% -62.59% -59.97%
203 China Aoyuan Group Limited 2018-03-14 81.16% 41.05% 50.66%
204 China Development Bank International Investment Limited 2018-03-15 -57.41% -39.03% -34.81%
205 SHENZHEN MINGWAH AOHAN HIGH TECHNOLOGY CORPORATION LIMITED 2018-03-20 -86.42% -68.87% -66.66%
206 TINGYI (CAYMAN ISLANDS) HOLDING CORP. 2018-03-20 -17.15% -10.41% -4.07%
207 Kidsland International Holdings Limited 2018-03-21 -70.04% -50.61% -47.31%
208 CHINA NEW TOWN DEVELOPMENT COMPANY LIMITED 2018-03-22 -44.86% -29.46% -25.15%
209 CHINA AIRCRAFT LEASING GROUP HOLDINGS LIMITED 2018-03-23 18.76% 10.62% 15.52%
210 Fufeng Group Limited 2018-03-27 -24.30% -15.17% -10.45%
211 SHENZHEN INTERNATIONAL HOLDINGS LIMITED 2018-03-27 11.45% 6.62% 12.55%
212 BAIOO Family Interactive Limited 2018-03-28 122.80% 60.68% 67.20%
213 China Tonghai International Financial Limited 2018-03-28 -63.06% -44.54% -42.29%
214 MIN XIN HOLDINGS LIMITED 2018-03-28 -39.08% -25.43% -22.40%
215 Sany Heavy Equipment International Holdings Company Limited 2018-03-28 99.84% 50.66% 56.78%
216 SRE Group Limited 2018-03-28 -75.38% -56.39% -54.62%
217 Teamway International Group Holdings Limited 2018-03-28 -86.79% -69.83% -68.61%
218 CMBC Capital Holdings Limited 2018-03-29 -77.74% -58.97% -57.26%
219 Huifu Limited 2018-06-01 -54.98% -41.83% -38.35%
220 OP Financial Limited 2018-06-28 -53.52% -41.32% -40.20%
221 China Fortune Financial Group Limited 2018-06-29 -55.83% -43.43% -41.73%
222 Hope Education Group Co., Ltd. 2018-07-24 -25.50% -19.74% -19.48%
223 China Green (Holdings) Limited 2018-07-29 -65.00% -54.06% -52.65%
224 DaFa Properties Group Limited 2018-09-28 31.16% 26.61% 18.46%
225 Ever Reach Group (Holdings) Company Limited 2018-10-30 -8.00% -7.55% -12.51%
226 China Lilang Limited 2019-03-13 -26.76% -34.69% -28.93%
227 CHINA RENAISSANCE HOLDINGS LIMITED 2019-03-19 -39.09% -50.03% -43.68%
228 Sansheng Holdings (Group) Co. Ltd. 2019-03-20 -21.60% -28.95% -20.44%
229 XiangXing International Holding Limited 2019-03-22 -8.93% -12.40% -3.00%
230 Kingsoft Corporation Limited 2019-03-26 0.80% 1.15% 9.18%
231 Zhongliang Holdings Group Company Limited 2019-06-27 9.56%
232 Xinyuan Property Management Service (Cayman) Ltd. 2019-09-25 -43.39%
233 Pharmaron Beijing Co., Ltd. 2019-11-14 2.84%
Average -2.11% -8.65%


Sign up for our free newsletter

Recommend Webb-site to a friend

Copyright & disclaimer, Privacy policy

Back to top